Time;durP1;ratioP1;P1;durP2;ratioP2;P2;SDS_P1;SDS_P2;PMS_P1;PMS_P2;Temp;Humidity;BMP_temperature;BMP_pressure;BME280_temperature;BME280_humidity;BME280_pressure;Samples;Min_cycle;Max_cycle;Signal;HPM_P1;HPM_P2
2021/03/21 00:01:20;;;;;;;1.63;1.50;;;;;;;;;;5074506;28;20747;-74
2021/03/21 00:03:45;;;;;;;5.17;1.50;;;;;;;;;;5073760;28;20425;-74
2021/03/21 00:06:11;;;;;;;2.33;1.60;;;;;;;;;;5072828;28;20475;-74
2021/03/21 00:08:37;;;;;;;2.37;1.70;;;;;;;;;;5070862;28;20500;-74
2021/03/21 00:11:06;;;;;;;2.60;1.60;;;5.20;1.00;;;;;;5074684;28;20429;-74
2021/03/21 00:13:33;;;;;;;2.67;1.80;;;;;;;;;;5074793;28;20692;-75
2021/03/21 00:15:59;;;;;;;3.23;1.47;;;;;;;;;;5074102;28;20212;-75
2021/03/21 00:18:32;;;;;;;1.90;1.80;;;5.20;1.00;;;;;;5072546;28;20413;-75
2021/03/21 00:20:59;;;;;;;2.53;1.77;;;5.20;1.00;;;;;;5073701;28;20218;-75
2021/03/21 00:23:25;;;;;;;1.63;1.53;;;;;;;;;;5074149;28;20386;-75
2021/03/21 00:25:51;;;;;;;4.50;2.00;;;5.20;1.00;;;;;;5074187;28;20487;-74
2021/03/21 00:28:21;;;;;;;3.93;2.43;;;5.30;1.00;;;;;;5072569;28;20694;-74
2021/03/21 00:30:49;;;;;;;2.20;1.67;;;5.30;1.00;;;;;;5073842;28;20772;-75
2021/03/21 00:33:20;;;;;;;2.00;1.80;;;5.30;1.00;;;;;;5068011;28;20406;-74
2021/03/21 00:35:46;;;;;;;2.97;2.00;;;;;;;;;;5066475;28;20182;-74
2021/03/21 00:38:23;;;;;;;2.80;2.17;;;5.20;1.00;;;;;;5073883;28;20524;-74
2021/03/21 00:40:51;;;;;;;2.70;1.90;;;5.30;1.00;;;;;;5079084;28;20515;-75
2021/03/21 00:43:17;;;;;;;3.20;1.70;;;5.30;1.00;;;;;;5081115;28;20904;-75
2021/03/21 00:45:43;;;;;;;3.20;2.13;;;5.20;1.00;;;;;;5073413;28;20451;-75
2021/03/21 00:48:35;;;;;;;6.73;1.97;;;5.30;1.00;;;;;;5073196;28;20457;-75
2021/03/21 00:51:01;;;;;;;2.28;1.55;;;;;;;;;;5073581;28;20398;-75
2021/03/21 00:53:27;;;;;;;2.03;1.83;;;;;;;;;;5072428;28;20159;-75
2021/03/21 00:55:54;;;;;;;5.07;2.07;;;;;;;;;;5053894;28;20896;-74
2021/03/21 00:58:20;;;;;;;2.20;2.00;;;5.20;1.00;;;;;;5053355;28;20449;-74
2021/03/21 01:00:52;;;;;;;4.13;2.15;;;5.20;1.00;;;;;;5053406;28;20238;-74
2021/03/21 01:03:18;;;;;;;5.23;1.67;;;;;;;;;;5062837;28;20171;-74
2021/03/21 01:05:56;;;;;;;6.55;1.90;;;5.20;1.00;;;;;;5072915;28;20413;-75
2021/03/21 01:08:26;;;;;;;2.33;1.85;;;5.30;1.00;;;;;;5071443;28;20739;-74
2021/03/21 01:11:00;;;;;;;2.10;1.90;;;5.20;1.00;;;;;;5073403;28;20239;-74
2021/03/21 01:13:26;;;;;;;2.17;1.67;;;;;;;;;;5073164;28;20400;-74
2021/03/21 01:15:53;;;;;;;5.25;2.28;;;;;;;;;;5071777;28;20264;-75
2021/03/21 01:18:22;;;;;;;3.08;1.58;;;5.30;1.00;;;;;;5060205;28;20249;-75
2021/03/21 01:20:48;;;;;;;3.47;2.25;;;;;;;;;;5052957;28;20250;-75
2021/03/21 01:23:15;;;;;;;4.53;1.87;;;5.20;1.00;;;;;;5053083;28;20159;-75
2021/03/21 01:25:41;;;;;;;3.08;1.83;;;;;;;;;;5052732;28;20408;-75
2021/03/21 01:28:20;;;;;;;2.58;2.15;;;5.10;1.00;;;;;;5052979;28;20187;-74
2021/03/21 01:30:46;;;;;;;3.28;2.10;;;;;;;;;;5053004;28;20172;-75
2021/03/21 01:33:12;;;;;;;2.43;2.20;;;;;;;;;;5055429;28;20658;-75
2021/03/21 01:35:38;;;;;;;3.27;2.00;;;;;;;;;;5064587;28;20416;-75
2021/03/21 01:38:04;;;;;;;5.87;2.27;;;;;;;;;;5072879;28;20475;-75
2021/03/21 01:40:31;;;;;;;3.53;2.07;;;;;;;;;;5072663;28;20831;-75
2021/03/21 01:42:56;;;;;;;3.23;2.30;;;5.20;1.00;;;;;;5072914;28;20429;-75
2021/03/21 01:45:38;;;;;;;4.23;2.60;;;5.20;1.00;;;;;;5072744;28;20401;-75
2021/03/21 01:48:19;;;;;;;3.50;2.42;;;5.20;1.00;;;;;;5075573;28;20250;-75
2021/03/21 01:50:51;;;;;;;2.35;1.67;;;5.20;1.00;;;;;;5093062;28;20155;-75
2021/03/21 01:53:20;;;;;;;2.92;2.15;;;5.30;1.00;;;;;;5091653;28;20174;-75
2021/03/21 01:55:46;;;;;;;3.35;2.22;;;;;;;;;;5092862;28;20151;-75
2021/03/21 01:58:12;;;;;;;3.60;2.20;;;;;;;;;;5093148;28;20170;-74
2021/03/21 02:00:39;;;;;;;3.20;2.37;;;5.30;1.00;;;;;;5075540;28;20178;-74
2021/03/21 02:03:05;;;;;;;4.77;1.90;;;5.30;1.00;;;;;;5072565;28;20467;-75
2021/03/21 02:05:31;;;;;;;2.57;2.00;;;;;;;;;;5072622;28;20402;-75
2021/03/21 02:08:12;;;;;;;3.47;2.03;;;5.30;1.00;;;;;;5068550;28;20497;-75
2021/03/21 02:11:13;;;;;;;6.07;2.22;;;5.30;1.00;;;;;;5071227;28;20229;-75
2021/03/21 02:14:00;;;;;;;6.43;2.70;;;5.30;1.00;;;;;;5072785;28;20166;-74
2021/03/21 02:16:38;;;;;;;3.90;3.08;;;5.30;1.00;;;;;;5066225;28;21099;-74
2021/03/21 02:19:04;;;;;;;4.93;2.85;;;;;;;;;;5052396;28;20167;-74
2021/03/21 02:21:33;;;;;;;2.47;2.27;;;5.40;1.00;;;;;;5054478;28;20520;-74
2021/03/21 02:24:17;;;;;;;3.83;2.40;;;5.40;1.00;;;;;;5072297;28;20405;-74
2021/03/21 02:27:10;;;;;;;2.95;2.17;;;5.40;1.00;;;;;;5072225;28;20258;-74
2021/03/21 02:30:07;;;;;;;7.90;3.27;;;5.40;1.00;;;;;;5072422;28;20181;-74
2021/03/21 02:32:40;;;;;;;4.10;2.67;;;5.40;1.00;;;;;;5008863;28;20470;-75
2021/03/21 02:35:12;;;;;;;6.23;2.30;;;5.40;1.00;;;;;;5009377;28;20751;-75
2021/03/21 02:37:55;;;;;;;6.10;3.17;;;5.40;1.00;;;;;;5010309;28;20790;-75
2021/03/21 02:40:47;;;;;;;5.20;2.80;;;5.30;1.00;;;;;;5007481;28;20435;-75
2021/03/21 02:43:40;;;;;;;3.45;2.47;;;5.40;1.00;;;;;;5002502;28;20517;-74
2021/03/21 02:46:32;;;;;;;2.90;2.40;;;9.60;1.00;;;;;;4932573;29;20202;-74
2021/03/21 02:49:03;;;;;;;2.83;2.47;;;5.40;1.00;;;;;;4932673;29;20483;-74
2021/03/21 02:51:37;;;;;;;5.60;2.47;;;5.40;1.00;;;;;;4932879;29;20417;-74
2021/03/21 02:54:08;;;;;;;3.90;2.42;;;5.30;1.00;;;;;;4932948;29;20506;-74
2021/03/21 02:56:34;;;;;;;4.78;2.90;;;;;;;;;;4932276;29;20402;-74
2021/03/21 02:59:13;;;;;;;5.90;3.00;;;5.40;1.00;;;;;;4934083;29;20305;-75
2021/03/21 03:02:07;;;;;;;5.90;3.77;;;5.40;1.00;;;;;;4935880;29;20176;-75
2021/03/21 03:04:36;;;;;;;3.97;2.30;;;5.40;1.00;;;;;;4936029;29;20443;-75
2021/03/21 03:07:10;;;;;;;4.32;2.80;;;5.30;1.00;;;;;;4935699;29;20455;-75
2021/03/21 03:09:44;;;;;;;6.97;3.33;;;5.30;1.00;;;;;;4975237;28;20215;-75
2021/03/21 03:12:18;;;;;;;5.60;2.93;;;5.30;1.00;;;;;;5013668;28;20180;-74
2021/03/21 03:14:47;;;;;;;3.38;2.45;;;5.30;1.00;;;;;;5012914;28;20410;-74
2021/03/21 03:17:41;;;;;;;3.85;2.65;;;5.30;1.00;;;;;;4993815;28;20193;-74
2021/03/21 03:20:25;;;;;;;5.72;2.72;;;5.30;1.00;;;;;;4995102;28;20158;-74
2021/03/21 03:23:09;;;;;;;3.30;2.80;;;5.30;1.00;;;;;;5038467;28;20566;-74
2021/03/21 03:25:39;;;;;;;4.03;2.50;;;5.40;1.00;;;;;;5075015;28;20390;-74
2021/03/21 03:28:05;;;;;;;8.57;3.10;;;;;;;;;;5075372;28;20187;-74
2021/03/21 03:30:45;;;;;;;5.70;2.97;;;5.40;1.00;;;;;;5074501;28;20693;-74
2021/03/21 03:33:11;;;;;;;4.27;2.80;;;;;;;;;;5075208;28;20880;-74
2021/03/21 03:35:37;;;;;;;3.03;2.73;;;;;;;;;;5062514;28;20926;-74
2021/03/21 03:38:06;;;;;;;3.93;2.70;;;5.40;1.00;;;;;;5055054;28;20401;-75
2021/03/21 03:40:36;;;;;;;4.20;2.47;;;5.40;1.00;;;;;;5059100;28;20421;-75
2021/03/21 03:43:22;;;;;;;3.28;2.45;;;5.30;1.00;;;;;;5075142;28;20440;-74
2021/03/21 03:45:53;;;;;;;6.07;2.80;;;5.30;1.00;;;;;;5074362;28;20232;-74
2021/03/21 03:48:39;;;;;;;4.13;2.80;;;5.30;1.00;;;;;;5086526;28;20230;-75
2021/03/21 03:51:26;;;;;;;5.18;2.50;;;5.30;1.00;;;;;;5095066;28;20389;-75
2021/03/21 03:54:10;;;;;;;4.90;2.60;;;5.20;1.00;;;;;;5054619;28;20152;-75
2021/03/21 03:57:07;;;;;;;2.90;2.20;;;5.20;1.00;;;;;;5054576;28;20812;-75
2021/03/21 03:59:33;;;;;;;8.60;2.10;;;;;;;;;;4994354;28;20435;-74
2021/03/21 04:02:08;;;;;;;5.40;3.07;;;5.30;1.00;;;;;;4993079;28;20433;-74
2021/03/21 04:04:49;;;;;;;3.90;2.97;;;5.30;1.00;;;;;;4992886;28;20417;-74
2021/03/21 04:07:47;;;;;;;5.05;2.88;;;5.30;1.00;;;;;;4992951;28;20456;-74
2021/03/21 04:10:21;;;;;;;6.30;2.80;;;5.30;1.00;;;;;;4998038;28;20576;-74
2021/03/21 04:12:47;;;;;;;3.00;2.70;;;;;;;;;;4992882;28;20467;-74
2021/03/21 04:15:25;;;;;;;6.60;2.27;;;5.40;1.00;;;;;;5004467;28;20495;-75
2021/03/21 04:18:12;;;;;;;4.50;2.77;;;5.40;1.00;;;;;;5012348;28;20451;-75
2021/03/21 04:20:48;;;;;;;4.95;2.90;;;5.40;1.00;;;;;;5012045;28;20464;-75
2021/03/21 04:23:18;;;;;;;4.13;2.60;;;5.30;1.00;;;;;;5011986;28;20191;-75
2021/03/21 04:25:51;;;;;;;2.97;2.58;;;5.40;1.00;;;;;;5011998;28;20393;-75
2021/03/21 04:28:22;;;;;;;4.63;2.90;;;5.30;1.00;;;;;;5012484;28;20579;-74
2021/03/21 04:30:53;;;;;;;4.07;2.27;;;5.30;1.00;;;;;;5010676;28;20196;-74
2021/03/21 04:33:24;;;;;;;3.00;2.50;;;5.30;1.00;;;;;;5012150;28;20388;-74
2021/03/21 04:35:55;;;;;;;6.33;3.40;;;5.30;1.00;;;;;;5017946;28;20801;-74
2021/03/21 04:38:45;;;;;;;4.57;3.03;;;5.40;1.00;;;;;;5073759;28;20406;-74
2021/03/21 04:41:16;;;;;;;6.57;2.53;;;5.40;1.00;;;;;;5074810;28;20806;-74
2021/03/21 04:44:00;;;;;;;3.90;2.80;;;5.40;1.00;;;;;;5076890;28;20445;-74
2021/03/21 04:46:32;;;;;;;3.67;2.80;;;5.30;1.00;;;;;;5073585;28;20451;-74
2021/03/21 04:48:59;;;;;;;5.63;2.70;;;;;;;;;;5090663;28;20926;-74
2021/03/21 04:51:33;;;;;;;4.40;2.90;;;5.20;1.00;;;;;;5084786;28;20444;-74
2021/03/21 04:54:09;;;;;;;5.37;3.23;;;5.20;1.00;;;;;;5073517;28;20435;-74
2021/03/21 04:56:38;;;;;;;2.77;2.57;;;5.20;1.00;;;;;;5073413;28;20425;-74
2021/03/21 04:59:12;;;;;;;7.07;2.97;;;5.20;1.00;;;;;;5073813;28;20410;-74
2021/03/21 05:01:55;;;;;;;5.67;2.90;;;5.20;1.00;;;;;;5053413;28;20760;-75
2021/03/21 05:04:27;;;;;;;7.30;3.37;;;5.10;1.00;;;;;;5053378;28;20394;-75
2021/03/21 05:07:02;;;;;;;3.30;3.00;;;5.10;1.00;;;;;;5053446;28;20454;-75
2021/03/21 05:09:42;;;;;;;6.60;3.70;;;5.00;1.00;;;;;;5053322;28;20751;-75
2021/03/21 05:12:22;;;;;;;5.87;3.30;;;4.90;1.00;;;;;;5066327;28;20178;-75
2021/03/21 05:14:56;;;;;;;6.88;3.42;;;4.90;1.00;;;;;;5073494;28;20670;-74
2021/03/21 05:17:46;;;;;;;3.40;2.80;;;4.80;1.00;;;;;;5073105;28;20159;-74
2021/03/21 05:20:34;;;;;;;8.73;3.80;;;4.90;1.00;;;;;;5070753;28;20183;-74
2021/03/21 05:23:17;;;;;;;7.72;3.45;;;4.80;1.00;;;;;;5052458;28;20170;-74
2021/03/21 05:25:52;;;;;;;6.60;3.83;;;4.80;1.00;;;;;;5052869;28;20160;-74
2021/03/21 05:28:39;;;;;;;5.88;3.80;;;4.80;1.00;;;;;;5053376;28;20198;-74
2021/03/21 05:31:05;;;;;;;4.13;3.25;;;;;;;;;;5052979;28;20174;-74
2021/03/21 05:33:31;;;;;;;17.80;3.77;;;;;;;;;;5053082;28;20159;-74
2021/03/21 05:35:59;;;;;;;6.17;3.63;;;4.80;1.00;;;;;;5056731;28;20495;-74
2021/03/21 05:38:50;;;;;;;3.83;2.90;;;4.90;1.00;;;;;;5052869;28;20410;-74
2021/03/21 05:41:58;;;;;;;4.07;2.80;;;4.90;1.00;;;;;;5063455;28;20183;-74
2021/03/21 05:44:59;;;;;;;6.10;3.70;;;4.90;1.00;;;;;;5053069;28;20183;-74
2021/03/21 05:47:43;;;;;;;5.00;3.45;;;5.00;1.00;;;;;;5060752;28;20198;-74
2021/03/21 05:50:55;;;;;;;5.40;3.60;;;5.00;1.00;;;;;;5081828;28;20218;-74
2021/03/21 05:53:48;;;;;;;6.35;3.88;;;5.00;1.00;;;;;;5052692;28;20151;-74
2021/03/21 05:56:51;;;;;;;7.80;4.13;;;5.00;1.00;;;;;;5052642;28;20516;-74
2021/03/21 05:59:54;;;;;;;5.77;4.00;;;5.10;1.00;;;;;;5052966;28;20167;-75
2021/03/21 06:02:28;;;;;;;9.60;4.78;;;5.10;1.00;;;;;;5052661;28;20477;-75
2021/03/21 06:05:23;;;;;;;5.30;3.90;;;5.20;1.00;;;;;;5057224;28;20173;-75
2021/03/21 06:08:23;;;;;;;7.10;4.43;;;5.20;1.00;;;;;;5072415;28;20471;-75
2021/03/21 06:11:13;;;;;;;5.45;3.65;;;5.30;1.00;;;;;;5030050;28;20498;-75
2021/03/21 06:13:39;;;;;;;17.70;5.63;;;;;;;;;;5029112;28;20284;-74
2021/03/21 06:16:32;;;;;;;9.75;4.88;;;5.40;1.00;;;;;;5030391;28;20402;-75
2021/03/21 06:19:12;;;;;;;10.40;5.13;;;5.40;1.00;;;;;;5030020;28;20164;-75
2021/03/21 06:22:11;;;;;;;10.37;5.47;;;5.40;1.00;;;;;;5010198;28;20513;-75
2021/03/21 06:25:00;;;;;;;10.63;5.37;;;5.40;1.00;;;;;;5005294;28;20424;-75
2021/03/21 06:27:55;;;;;;;13.40;5.70;;;5.50;1.00;;;;;;5010106;28;20459;-75
2021/03/21 06:30:35;;;;;;;17.63;6.07;;;5.50;1.00;;;;;;5013856;28;20445;-74
2021/03/21 06:33:36;;;;;;;16.20;5.60;;;5.60;1.00;;;;;;5031322;28;20423;-75
2021/03/21 06:36:02;;;;;;;9.70;5.00;;;;;;;;;;4952386;29;20470;-75
2021/03/21 06:38:45;;;;;;;10.32;5.25;;;5.50;1.00;;;;;;4955846;29;20403;-75
2021/03/21 06:41:12;;;;;;;11.93;6.07;;;;;;;;;;4955395;29;20202;-75
2021/03/21 06:43:45;;;;;;;15.50;6.57;;;5.60;1.00;;;;;;4940892;29;20435;-75
2021/03/21 06:46:16;;;;;;;18.93;5.93;;;5.60;1.00;;;;;;4952037;28;20845;-74
2021/03/21 06:48:55;;;;;;;12.40;6.40;;;5.60;1.00;;;;;;5000345;28;20819;-74
2021/03/21 06:51:21;;;;;;;10.97;5.73;;;;;;;;;;4994486;28;20945;-74
2021/03/21 06:53:47;;;;;;;13.33;6.20;;;;;;;;;;4994356;28;20416;-74
2021/03/21 06:57:05;;;;;;;11.73;5.70;;;5.70;1.00;;;;;;4994365;28;20990;-74
2021/03/21 07:00:03;;;;;;;13.30;5.43;;;5.80;1.00;;;;;;4990440;28;20940;-74
2021/03/21 07:02:53;;;;;;;11.90;5.63;;;5.90;1.00;;;;;;4994093;28;20401;-76
2021/03/21 07:05:19;;;;;;;17.40;6.80;;;;;;;;;;4994052;28;20500;-75
2021/03/21 07:08:09;;;;;;;12.67;5.77;;;6.10;1.00;;;;;;4993961;28;20539;-75
2021/03/21 07:10:49;;;;;;;11.10;6.00;;;6.20;1.00;;;;;;4993917;28;20500;-75
2021/03/21 07:13:15;;;;;;;9.57;5.73;;;;;;;;;;5058097;28;20436;-85
2021/03/21 07:15:56;;;;;;;10.47;5.60;;;6.20;1.00;;;;;;5074213;28;20483;-84
2021/03/21 07:18:40;;;;;;;9.97;5.13;;;6.30;1.00;;;;;;5075886;28;20756;-84
2021/03/21 07:21:28;;;;;;;9.37;4.93;;;6.40;1.00;;;;;;5073901;28;20425;-84
2021/03/21 07:24:19;;;;;;;13.33;6.10;;;6.60;1.00;;;;;;5075651;28;20397;-84
2021/03/21 07:26:45;;;;;;;16.23;5.50;;;;;;;;;;5073888;28;20808;-84
2021/03/21 07:29:35;;;;;;;12.10;5.77;;;6.70;1.00;;;;;;5074036;28;20464;-83
2021/03/21 07:32:21;;;;;;;9.40;5.00;;;6.70;1.00;;;;;;5075122;28;20484;-81
2021/03/21 07:35:11;;;;;;;11.60;5.40;;;6.60;1.00;;;;;;5059078;28;20437;-80
2021/03/21 07:38:01;;;;;;;11.63;5.20;;;6.70;1.00;;;;;;5055276;28;20415;-81
2021/03/21 07:40:37;;;;;;;8.10;4.50;;;6.70;1.00;;;;;;5066970;28;20461;-85
2021/03/21 07:43:15;;;;;;;11.97;6.27;;;6.70;1.00;;;;;;5074294;28;20433;-76
2021/03/21 07:46:00;;;;;;;13.37;5.87;;;6.70;1.00;;;;;;5074363;28;20438;-75
2021/03/21 07:48:26;;;;;;;8.30;5.00;;;;;;;;;;5086900;28;20799;-75
2021/03/21 07:51:23;;;;;;;13.47;5.20;;;6.70;1.00;;;;;;5090432;28;20409;-75
2021/03/21 07:54:18;;;;;;;7.97;4.33;;;6.70;1.00;;;;;;5091058;28;20449;-75
2021/03/21 07:56:50;;;;;;;15.20;5.40;;;6.70;1.00;;;;;;5032438;28;20450;-76
2021/03/21 07:59:31;;;;;;;8.40;4.67;;;6.70;1.00;;;;;;5032311;28;20741;-75
2021/03/21 08:01:57;;;;;;;7.73;5.50;;;;;;;;;;5020771;28;20808;-75
2021/03/21 08:04:27;;;;;;;10.17;5.50;;;6.70;1.00;;;;;;5012748;28;20515;-81
2021/03/21 08:07:15;;;;;;;9.77;5.07;;;6.80;1.00;;;;;;5012539;28;20392;-80
2021/03/21 08:09:42;;;;;;;8.30;4.63;;;;;;;;;;5012489;28;20482;-81
2021/03/21 08:12:19;;;;;;;9.90;5.43;;;6.90;1.00;;;;;;5012748;28;20442;-81
2021/03/21 08:14:46;;;;;;;18.63;6.10;;;7.00;1.00;;;;;;5005276;28;20985;-80
2021/03/21 08:17:20;;;;;;;12.47;5.87;;;7.00;1.00;;;;;;4996064;28;20451;-81
2021/03/21 08:19:47;;;;;;;8.73;4.80;;;;;;;;;;5012348;28;20396;-81
2021/03/21 08:22:22;;;;;;;6.97;4.30;;;7.20;1.00;;;;;;5012198;28;20400;-81
2021/03/21 08:24:48;;;;;;;9.93;4.67;;;;;;;;;;5006040;28;20424;-75
2021/03/21 08:27:26;;;;;;;7.23;3.90;;;7.30;1.00;;;;;;4992107;28;20460;-75
2021/03/21 08:30:00;;;;;;;14.97;5.60;;;7.30;1.00;;;;;;5000973;28;20420;-75
2021/03/21 08:32:28;;;;;;;4.83;4.00;;;7.50;1.00;;;;;;4993561;28;20473;-76
2021/03/21 08:34:54;;;;;;;8.20;4.80;;;;;;;;;;5058707;28;20517;-76
2021/03/21 08:37:33;;;;;;;6.70;3.90;;;7.80;1.00;;;;;;5069399;28;20471;-76
2021/03/21 08:40:10;;;;;;;9.23;4.63;;;8.10;1.00;;;;;;5068483;28;20417;-76
2021/03/21 08:42:39;;;;;;;7.20;4.00;;;8.20;1.00;;;;;;5060546;28;20433;-75
2021/03/21 08:45:30;;;;;;;6.60;4.10;;;8.40;1.00;;;;;;5073249;28;20447;-75
2021/03/21 08:48:11;;;;;;;5.03;3.30;;;8.60;1.00;;;;;;5081781;28;20448;-76
2021/03/21 08:50:43;;;;;;;5.57;3.30;;;8.90;1.00;;;;;;5094008;28;20392;-76
2021/03/21 08:53:31;;;;;;;5.80;3.53;;;9.00;1.00;;;;;;5070479;28;20497;-76
2021/03/21 08:56:13;;;;;;;3.90;2.50;;;9.20;1.00;;;;;;5061373;28;20495;-76
2021/03/21 08:58:40;;;;;;;4.13;2.30;;;;;;;;;;5073370;28;20397;-76
2021/03/21 09:01:24;;;;;;;2.40;2.17;;;9.40;1.00;;;;;;5073507;28;20887;-75
2021/03/21 09:03:52;;;;;;;1.83;1.70;;;9.70;1.00;;;;;;5073125;28;20443;-75
2021/03/21 09:06:34;;;;;;;1.60;1.50;;;9.80;1.00;;;;;;5073222;28;20948;-76
2021/03/21 09:09:20;;;;;;;3.10;1.40;;;9.70;1.00;;;;;;5073262;28;20433;-76
2021/03/21 09:11:49;;;;;;;1.60;1.50;;;9.60;1.00;;;;;;5066352;28;20425;-75
2021/03/21 09:14:22;;;;;;;1.97;1.77;;;9.60;1.00;;;;;;5072915;28;20958;-77
2021/03/21 09:17:03;;;;;;;2.17;1.97;;;9.60;1.00;;;;;;5071386;28;20532;-75
2021/03/21 09:19:35;;;;;;;1.57;1.43;;;9.50;1.00;;;;;;5073223;28;20390;-75
2021/03/21 09:22:10;;;;;;;2.63;1.73;;;9.60;1.00;;;;;;5072984;28;20456;-75
2021/03/21 09:24:39;;;;;;;1.33;1.23;;;;;;;;;;5073032;28;20393;-75
2021/03/21 09:27:28;;;;;;;1.33;1.23;;;9.60;1.00;;;;;;5072680;28;20433;-76
2021/03/21 09:29:54;;;;;;;2.50;1.70;;;;;;;;;;5072967;28;20785;-75
2021/03/21 09:32:32;;;;;;;1.47;1.30;;;9.40;1.00;;;;;;5070728;28;20413;-75
2021/03/21 09:35:35;;;;;;;3.23;1.83;;;9.40;1.00;;;;;;5066974;28;20878;-75
2021/03/21 09:38:14;;;;;;;1.43;1.10;;;9.20;1.00;;;;;;5052928;28;20395;-75
2021/03/21 09:40:49;;;;;;;1.30;1.20;;;9.20;1.00;;;;;;5066300;28;20456;-75
2021/03/21 09:43:19;;;;;;;1.90;1.70;;;9.30;1.00;;;;;;5064784;28;20451;-75
2021/03/21 09:45:50;;;;;;;2.83;1.70;;;9.40;1.00;;;;;;5073090;28;20413;-75
2021/03/21 09:48:44;;;;;;;1.60;1.47;;;9.50;1.00;;;;;;5072629;28;20448;-75
2021/03/21 09:51:16;;;;;;;1.63;1.53;;;9.60;1.00;;;;;;5072777;28;20950;-75
2021/03/21 09:53:56;;;;;;;1.80;1.70;;;9.50;1.00;;;;;;5072811;28;20400;-75
2021/03/21 09:56:27;;;;;;;2.37;1.50;;;9.50;1.00;;;;;;5072563;28;20393;-75
2021/03/21 09:59:26;;;;;;;2.43;1.73;;;9.60;1.00;;;;;;5072719;28;20409;-75
2021/03/21 10:02:04;;;;;;;1.73;1.63;;;9.80;1.00;;;;;;5058860;28;20417;-75
2021/03/21 10:04:58;;;;;;;4.83;1.80;;;9.80;1.00;;;;;;5071609;28;20904;-75
2021/03/21 10:07:48;;;;;;;1.30;1.20;;;9.90;1.00;;;;;;5053119;28;20485;-75
2021/03/21 10:10:25;;;;;;;2.73;1.83;;;10.00;1.00;;;;;;5060793;28;20417;-75
2021/03/21 10:12:57;;;;;;;2.20;1.50;;;10.00;1.00;;;;;;5071468;28;20444;-75
2021/03/21 10:16:00;;;;;;;3.00;1.70;;;10.00;1.00;;;;;;5075077;28;20448;-75
2021/03/21 10:18:50;;;;;;;1.50;1.40;;;10.10;1.00;;;;;;5073928;28;20474;-75
2021/03/21 10:21:22;;;;;;;1.83;1.73;;;10.10;1.00;;;;;;5077337;28;20476;-75
2021/03/21 10:23:48;;;;;;;1.50;1.20;;;10.40;1.00;;;;;;5072708;28;20512;-76
2021/03/21 10:26:15;;;;;;;2.00;1.23;;;10.40;1.00;;;;;;5077030;28;20512;-75
2021/03/21 10:28:50;;;;;;;1.63;1.40;;;10.50;1.00;;;;;;5077311;28;20438;-75
2021/03/21 10:31:36;;;;;;;2.03;1.60;;;10.70;1.00;;;;;;5077819;28;20431;-75
2021/03/21 10:34:03;;;;;;;1.60;1.50;;;10.50;1.00;;;;;;5077441;28;20368;-75
2021/03/21 10:36:41;;;;;;;1.63;1.53;;;10.40;1.00;;;;;;5078093;28;20418;-76
2021/03/21 10:39:23;;;;;;;1.90;1.67;;;10.40;1.00;;;;;;5077336;28;20402;-76
2021/03/21 10:41:57;;;;;;;1.43;1.27;;;10.50;1.00;;;;;;5076973;28;20421;-75
2021/03/21 10:44:44;;;;;;;2.07;1.57;;;10.60;1.00;;;;;;5076802;28;20417;-75
2021/03/21 10:47:35;;;;;;;2.73;1.37;;;10.50;1.00;;;;;;5077168;28;20449;-75
2021/03/21 10:50:53;;;;;;;1.30;1.20;;;10.40;1.00;;;;;;5076836;28;20373;-75
2021/03/21 10:54:02;;;;;;;1.63;1.20;;;10.40;1.00;;;;;;5076921;28;20793;-75
2021/03/21 11:00:43;;;;;;;1.50;1.40;;;10.40;1.00;;;;;;5076575;28;20526;-75
2021/03/21 11:03:27;;;;;;;1.20;1.10;;;10.60;1.00;;;;;;5015193;28;20428;-75
2021/03/21 11:05:57;;;;;;;1.43;1.30;;;10.80;1.00;;;;;;5006523;28;20849;-75
2021/03/21 11:08:29;;;;;;;15.73;3.30;;;10.90;1.00;;;;;;4995087;28;20490;-76
2021/03/21 11:10:57;;;;;;;1.97;1.33;;;10.90;1.00;;;;;;5014166;28;20939;-75
2021/03/21 11:13:30;;;;;;;1.17;1.07;;;10.90;1.00;;;;;;5014517;28;20416;-75
2021/03/21 11:16:18;;;;;;;2.63;1.30;;;11.00;1.00;;;;;;5012668;28;20412;-75
2021/03/21 11:19:01;;;;;;;1.23;0.80;;;11.00;1.00;;;;;;5005340;28;20755;-75
2021/03/21 11:21:45;;;;;;;1.57;1.00;;;11.00;1.00;;;;;;5010550;28;20970;-75
2021/03/21 11:24:29;;;;;;;1.07;0.93;;;11.00;1.00;;;;;;4994929;28;20876;-75
2021/03/21 11:27:25;;;;;;;1.23;0.80;;;11.30;1.00;;;;;;4994591;28;20760;-75
2021/03/21 11:30:45;;;;;;;0.80;0.70;;;11.50;1.00;;;;;;4994691;28;20783;-75
2021/03/21 11:33:45;;;;;;;0.90;0.90;;;11.60;1.00;;;;;;4995051;28;20439;-75
2021/03/21 11:36:21;;;;;;;1.30;1.00;;;11.50;1.00;;;;;;5007966;28;20434;-75
2021/03/21 11:38:48;;;;;;;6.70;1.10;;;11.80;1.00;;;;;;5040331;28;20430;-75
2021/03/21 11:41:37;;;;;;;1.27;1.03;;;12.00;1.00;;;;;;5085487;28;20399;-75
2021/03/21 11:44:11;;;;;;;1.37;1.23;;;12.00;1.00;;;;;;5095861;28;20403;-75
2021/03/21 11:46:46;;;;;;;1.00;0.90;;;12.00;1.00;;;;;;5078540;28;20412;-75
2021/03/21 11:49:13;;;;;;;1.07;1.03;;;12.20;1.00;;;;;;5076119;28;20436;-75
2021/03/21 11:51:41;;;;;;;2.70;1.60;;;12.10;1.00;;;;;;5075738;28;20393;-75
2021/03/21 11:54:14;;;;;;;4.73;1.00;;;12.20;1.00;;;;;;5075687;28;20364;-75
2021/03/21 11:56:40;;;;;;;1.10;1.03;;;;;;;;;;5056725;28;20426;-77
2021/03/21 11:59:06;;;;;;;0.83;0.80;;;;;;;;;;5071433;28;20412;-76
2021/03/21 12:01:48;;;;;;;1.10;0.83;;;12.20;1.00;;;;;;5074502;28;20394;-75
2021/03/21 12:04:35;;;;;;;1.03;0.90;;;12.20;1.00;;;;;;5068959;28;20920;-75
2021/03/21 12:07:01;;;;;;;1.33;1.20;;;;;;;;;;5071064;28;20430;-75
2021/03/21 12:09:59;;;;;;;0.80;0.80;;;12.30;1.00;;;;;;5074578;28;20441;-73
2021/03/21 12:12:44;;;;;;;2.23;1.50;;;12.30;1.00;;;;;;5012878;28;20443;-75
2021/03/21 12:15:36;;;;;;;2.90;1.20;;;12.20;1.00;;;;;;5013281;28;20425;-75
2021/03/21 12:18:22;;;;;;;4.93;1.10;;;;;;;;;;5008304;28;20444;-75
2021/03/21 12:20:54;;;;;;;4.03;1.57;;;12.50;1.00;;;;;;5012759;28;20450;-75
2021/03/21 12:23:51;;;;;;;1.47;1.20;;;12.80;1.00;;;;;;5013498;28;20626;-75
2021/03/21 12:26:45;;;;;;;2.40;1.20;;;12.70;1.00;;;;;;5012982;28;20423;-75
2021/03/21 12:29:37;;;;;;;4.63;1.70;;;12.70;1.00;;;;;;5013025;28;20855;-75
2021/03/21 12:32:40;;;;;;;3.73;1.87;;;12.60;1.00;;;;;;5012902;28;20401;-75
2021/03/21 12:35:22;;;;;;;1.30;1.20;;;12.60;1.00;;;;;;5013207;28;20419;-75
2021/03/21 12:37:58;;;;;;;1.37;1.27;;;12.40;1.00;;;;;;5013159;28;20430;-75
2021/03/21 12:40:35;;;;;;;0.90;0.90;;;12.30;1.00;;;;;;5009882;28;20420;-75
2021/03/21 12:43:29;;;;;;;2.27;1.37;;;12.20;1.00;;;;;;4997504;28;20875;-75
2021/03/21 12:46:14;;;;;;;1.93;0.93;;;12.10;1.00;;;;;;5011061;28;20957;-75
2021/03/21 12:48:55;;;;;;;1.30;1.20;;;12.00;1.00;;;;;;5038948;28;20488;-76
2021/03/21 12:51:32;;;;;;;1.50;1.40;;;11.90;1.00;;;;;;5073458;28;20393;-75
2021/03/21 12:54:00;;;;;;;2.13;1.20;;;11.90;1.00;;;;;;5073442;28;20429;-75
2021/03/21 12:56:26;;;;;;;3.13;1.23;;;;;;;;;;5073237;28;20429;-75
2021/03/21 12:58:52;;;;;;;1.10;1.00;;;11.90;1.00;;;;;;5061186;28;20468;-75
2021/03/21 13:01:19;;;;;;;1.03;0.93;;;11.90;1.00;;;;;;5074490;28;20397;-75
2021/03/21 13:03:46;;;;;;;3.17;1.40;;;12.00;1.00;;;;;;5074292;28;20163;-75
2021/03/21 13:06:15;;;;;;;0.80;0.80;;;11.90;1.00;;;;;;5074140;28;20433;-75
2021/03/21 13:08:45;;;;;;;1.13;1.00;;;11.90;1.00;;;;;;5073031;28;20464;-75
2021/03/21 13:11:10;;;;;;;1.80;1.10;;;12.00;1.00;;;;;;5074000;28;20432;-75
2021/03/21 13:13:45;;;;;;;2.70;1.10;;;12.30;1.00;;;;;;5073883;28;20412;-75
2021/03/21 13:16:13;;;;;;;1.63;1.27;;;;;;;;;;5073985;28;20252;-75
2021/03/21 13:18:39;;;;;;;2.50;1.43;;;;;;;;;;5072483;28;20757;-75
2021/03/21 13:21:05;;;;;;;3.77;1.20;;;12.00;1.00;;;;;;5059602;28;20927;-75
2021/03/21 13:23:31;;;;;;;3.80;1.20;;;;;;;;;;5054123;28;20485;-75
2021/03/21 13:25:58;;;;;;;1.90;1.00;;;11.70;1.00;;;;;;5053738;28;20380;-75
2021/03/21 13:28:24;;;;;;;4.50;0.80;;;11.50;1.00;;;;;;5053825;28;20516;-75
2021/03/21 13:30:58;;;;;;;2.70;1.17;;;11.50;1.00;;;;;;5053406;28;20418;-75
2021/03/21 13:33:28;;;;;;;1.10;0.93;;;11.80;1.00;;;;;;5060712;28;20175;-75
2021/03/21 13:36:26;;;;;;;1.83;0.97;;;11.80;1.00;;;;;;5074137;28;20892;-75
2021/03/21 13:39:09;;;;;;;1.50;0.80;;;11.70;1.00;;;;;;5074497;28;20448;-75
2021/03/21 13:41:35;;;;;;;2.90;0.80;;;11.50;1.00;;;;;;5073704;28;20399;-75
2021/03/21 13:44:04;;;;;;;5.30;1.20;;;11.60;1.00;;;;;;5073314;28;20422;-75
2021/03/21 13:46:35;;;;;;;3.97;1.00;;;11.70;1.00;;;;;;5073754;28;20391;-75
2021/03/21 13:49:03;;;;;;;1.87;0.70;;;11.80;1.00;;;;;;5073739;28;20448;-75
2021/03/21 13:54:52;;;;;;;5.70;1.47;;;;;;;;;;5053625;28;20806;-75
2021/03/21 13:57:27;;;;;;;3.43;1.27;;;11.80;1.00;;;;;;5053853;28;20393;-75
2021/03/21 14:00:14;;;;;;;2.80;1.10;;;12.00;1.00;;;;;;5053767;28;20757;-75
2021/03/21 14:03:08;;;;;;;10.87;1.20;;;12.10;1.00;;;;;;5053612;28;20406;-74
2021/03/21 14:05:52;;;;;;;2.53;1.20;;;11.90;1.00;;;;;;5061461;28;20394;-75
2021/03/21 14:08:27;;;;;;;2.73;1.10;;;12.00;1.00;;;;;;5072964;28;20441;-75
2021/03/21 14:11:20;;;;;;;3.37;1.40;;;12.10;1.00;;;;;;5069648;28;20403;-75
2021/03/21 14:13:46;;;;;;;3.30;1.17;;;12.30;1.00;;;;;;5073698;28;20389;-75
2021/03/21 14:16:32;;;;;;;2.27;1.10;;;12.30;1.00;;;;;;5072088;28;20504;-75
2021/03/21 14:18:58;;;;;;;3.10;1.33;;;;;;;;;;5072336;28;20171;-74
2021/03/21 14:21:27;;;;;;;2.00;0.87;;;12.20;1.00;;;;;;5065283;28;20892;-74
2021/03/21 14:24:44;;;;;;;2.90;1.00;;;12.30;1.00;;;;;;5073611;28;20425;-75